Station: Echuca  

  Atmospheric Gas Attenuation - ITU Rec 676-11   ----------------- dB/100km -----------------
Date Time Temp RH % AH g/m3 Dew Point Wind Direction Speed kph Gust kph Barometer mB Rainfall Since 9am 24GHz 47GHz 76GHz 122GHz 134GHz 241GHz
08/05 09:00 13 82 9.3 10.1 15 1024 0 21.1 27.7 43.6 114.4 109.8 378.3
07/05 09:00 7.9 68 5.59 2.4 20 1023.6 1 13.4 23.1 31.0 80.6 66.2 224.5
06/05 09:00 12.5 85 9.35 10 13 1022.5 0 21.2 27.9 44.0 115.5 111.1 382.7
05/05 09:00 11.7 92 9.62 10.5 13 1021 1 21.9 28.6 45.5 119.6 116.0 399.6
04/05 09:00 12.8 79 8.85 9.3 17 1014.5 11 20.2 26.6 41.4 108.7 103.1 355.0
02/05 09:00 19.2 62 10.22 11.8 19 1020 0 22.7 27.1 43.7 114.9 112.9 389.9
01/05 09:00 13 70 7.94 7.7 11 1025.9 0 18.2 25.5 38.1 99.7 91.7 314.7
30/04 09:00 16.6 72 10.17 11.6 13 1028.1 0 22.8 28.2 45.4 119.1 116.8 403.2
29/04 09:00 18 70 10.75 12.6 11 1028.4 0 23.9 28.7 47.0 123.4 122.6 423.4
28/04 09:00 15.5 74 9.78 11 6 1025.6 0 22.0 27.8 44.3 116.2 112.9 389.5
27/04 09:00 16 68 9.26 10.1 13 1024.5 0 20.9 26.7 41.8 109.7 105.2 362.4
26/04 09:00 17 65 9.4 10.5 9 1013.1 0 21.1 26.2 41.3 108.6 104.7 360.9
25/04 09:00 16 69 9.4 10.3 17 1029.5 0 21.2 27.2 42.6 111.8 107.5 370.4
24/04 09:00 15 73 9.36 10.2 17 1031.8 0 21.1 27.5 43.1 113.0 108.5 373.9
23/04 09:00 15.1 76 9.8 10.9 9 1029.9 0 22.1 28.1 44.8 117.5 114.2 393.8
22/04 09:00 17 65 9.4 10.4 11 1026.9 0 21.1 26.8 42.0 110.1 105.9 364.9
21/04 09:00 17 70 10.13 11.5 9 1027.5 0 22.7 28.0 44.9 118.0 115.6 399.1
20/04 09:00 9.4 80 7.24 6.2 0 1013.1 0 16.9 24.9 36.4 95.4 85.6 293.0
18/04 09:00 12 70 7.46 6.8 19 1023.8 0 17.2 25.0 36.6 95.7 86.4 296.0
17/04 09:00 15 68 8.72 9.2 22 1018.4 0 19.8 25.9 39.9 104.7 98.9 340.3
16/04 09:00 16 71 9.67 10.7 19 1018.9 0 21.8 27.2 43.2 113.5 110.1 379.8
15/04 09:00 14.2 80 9.77 10.8 0 1022.2 0 22.1 28.0 44.8 117.7 114.4 394.5
14/04 09:00 14.2 87 10.62 12 0 1023.8 0 23.9 29.6 48.5 127.5 126.5 436.6
13/04 09:00 12.9 84 9.47 10.2 9 1023 0 21.5 28.0 44.3 116.3 112.3 386.7
12/04 09:00 12.2 81 8.74 9 20 1015.2 0 20.0 26.7 41.3 108.3 102.5 352.7
11/04 09:00 11.7 79 8.26 8.3 17 1014.5 0.4 19.0 26.0 39.5 103.7 96.6 332.0
10/04 09:00 16.1 78 10.69 12.3 19 1012.5 7 23.9 28.6 47.1 123.9 123.2 425.6
09/04 09:00 18.8 86 13.85 16.5 17 1013.1 1 30.5 33.2 59.0 155.6 163.1 565.3
08/04 09:00 13.9 72 8.63 9 11 1017.5 0 19.6 26.1 40.1 105.1 99.0 340.6
07/04 09:00 18.6 84 13.37 15.9 15 1013.4 1 29.5 32.4 57.0 150.4 156.6 542.5
06/04 09:00 17 85 12.3 14.4 13 1017.6 1 27.3 31.3 53.7 141.4 144.8 501.1
05/04 09:00 18 71 10.9 12.8 22 1023.9 24.2 28.8 47.4 124.5 124.2 429.0
04/04 09:00 12.8 68 7.62 7 20 1025.5 0 17.5 25.1 36.9 96.5 87.7 300.7
03/04 09:00 14.6 82 10.26 11.6 15 1025.9 0 23.1 28.9 46.8 123.0 121.0 417.3
02/04 09:00 16 84 11.44 13.3 9 1022.8 0 25.5 30.3 50.9 133.8 134.9 466.4
01/04 09:00 20.5 58 10.32 12.1 13 1018.1 0 22.9 26.8 43.3 113.9 112.2 387.4
31/03 09:00 14.8 81 10.26 11.6 6 1021.9 0 23.1 28.7 46.5 122.2 120.3 415.0
30/03 09:00 14.1 88 10.68 12.1 7 1023.8 0 24.0 29.7 48.8 128.4 127.5 440.1
29/03 09:00 14 89 10.74 12.2 11 1022.3 0 24.1 29.8 49.1 129.1 128.4 443.2
28/03 09:00 13.8 82 9.77 10.8 13 1022.1 0 22.1 28.2 45.0 118.3 115.0 396.5
27/03 09:00 11.2 83 8.41 8.4 24 1016.2 2 19.3 26.5 40.5 106.2 99.4 341.7
26/03 09:00 17 81 11.72 13.8 13 1012.8 4 26.1 30.1 50.9 134.1 136.1 470.6
25/03 09:00 17.3 100 14.73 17.3 6 1015.1 8 32.5 35.5 64.3 169.9 180.0 623.9
24/03 09:00 20 81 14 16.7 9 1016.4 0 30.7 33.1 58.9 155.4 163.1 565.4
23/03 09:00 19.1 79 12.95 15.4 7 1021.2 0 28.5 31.8 55.2 145.5 150.5 521.0
22/03 09:00 17.5 87 12.97 15.3 7 1021.1 0 28.7 32.4 56.4 148.8 153.9 533.0
21/03 09:00 16 89 12.13 14.2 15 1019.6 0 27.0 31.4 53.7 141.5 144.5 499.8
20/03 09:00 15.5 89 11.76 13.7 11 1018.9 0 26.3 30.9 52.4 137.9 140.0 484.1
19/03 09:00 17.9 91 13.89 16.4 13 1018.9 3 30.7 33.8 60.2 158.7 166.4 576.5
18/03 09:00 17.1 88 12.81 15.2 11 1020.1 1 28.4 32.3 56.0 147.5 152.3 527.2
17/03 09:00 18 100 15.36 18 0 1017.2 2 33.8 36.5 66.8 176.5 188.3 652.9
16/03 09:00 21.3 78 14.54 17.4 0 1013 0 31.8 33.4 60.1 158.7 167.7 581.5
14/03 09:00 13.7 73 8.64 8.9 9 1027.2 0 19.7 26.5 40.6 106.5 100.2 344.6
13/03 09:00 14 65 7.84 7.5 24 1022.9 0 18.0 25.0 37.1 97.1 89.0 305.5
12/03 09:00 15.2 67 8.7 9.2 24 1013.2 0 19.7 25.6 39.5 103.7 97.9 337.1
11/03 09:00 25 47 10.82 13 24 1004.5 0 23.7 25.8 42.2 111.2 110.8 383.4
10/03 09:00 20 80 13.82 16.4 11 1012.1 0 30.4 32.6 57.9 152.7 160.0 554.6
09/03 09:00 21.8 60 11.51 13.7 17 1012.3 0 25.3 28.1 47.0 123.8 125.0 432.7
08/03 09:00 17.1 67 9.75 11 19 1013.5 0 21.9 26.8 42.7 112.2 109.2 376.6
07/03 09:00 18.8 74 11.92 14.1 19 1013.1 0 26.4 29.8 50.6 133.3 135.7 469.5
06/03 09:00 18.5 76 12.02 14.2 15 1014.2 0 26.6 30.1 51.3 135.1 137.7 476.6
05/03 09:00 17 86 12.44 14.6 7 1013.8 0 27.6 31.4 54.1 142.5 146.4 506.7
04/03 09:00 19.2 75 12.37 14.8 20 1012.5 0 27.3 30.4 52.2 137.6 141.1 488.6
03/03 09:00 18.1 83 12.82 15.2 28 1010.8 29 28.4 31.5 54.8 144.5 149.4 517.3
02/03 09:00 19.3 98 16.25 19 7 1007.8 70 35.7 37.2 69.3 183.3 197.5 685.0
28/02 09:00 23.3 71 14.84 17.7 13 1014.5 3 32.3 33.3 59.9 158.2 167.8 582.0
27/02 09:00 22.9 66 13.49 16.2 24 1014.6 10 29.4 31.1 54.5 143.7 149.8 519.3
26/02 09:00 19.4 73 12.18 14.4 13 1016.2 0 26.9 30.2 51.4 135.6 138.5 479.5
25/02 09:00 19.4 81 13.51 16.1 17 1015.8 0 29.7 32.5 57.2 150.8 157.3 544.8
24/02 09:00 21.7 63 12.02 14.4 9 1011.2 0 26.4 28.9 49.1 129.3 131.8 456.3
21/02 09:00 22.8 53 10.77 12.7 13 1011.1 0 23.7 26.6 43.5 114.5 113.9 393.9
20/02 09:00 18.6 70 11.14 13.1 11 1014.7 0 24.7 28.6 47.5 125.2 125.5 434.0
19/02 09:00 19.5 55 9.23 10.4 13 1016.2 0 20.6 25.4 39.6 103.8 99.5 343.1
18/02 09:00 17 64 9.26 10.2 19 1010.4 0 20.8 25.9 40.7 106.9 102.6 353.8
17/02 09:00 25.4 43 10.12 12.2 22 1008.1 0 22.2 24.8 39.6 104.2 102.2 353.2
16/02 09:00 23 55 11.3 13.6 17 1015 0 24.8 27.5 45.6 120.1 120.7 417.6
15/02 09:00 22.5 54 10.79 12.9 22 1016.8 0 23.8 26.9 44.0 115.7 115.1 398.1
14/02 09:00 19.4 59 9.84 11.2 15 1018.2 0 21.9 26.4 42.0 110.5 107.6 371.2
13/02 09:00 15.9 47 6.36 4.7 30 1016.4 0 14.7 22.0 30.5 79.6 68.4 233.6
12/02 09:00 15 56 7.18 6.4 28 1010.7 0 16.5 23.3 33.6 88.1 78.7 269.8
11/02 09:00 28 33 8.97 10.6 9 1008.4 0 19.7 22.5 34.5 90.5 86.0 296.9
10/02 09:00 19.9 73 12.54 15 13 1015.1 0 27.6 30.6 52.6 138.6 142.5 493.4
09/02 09:00 24.4 74 16.47 19.6 7 1012 6 35.7 35.6 66.1 174.6 188.3 653.6
08/02 09:00 25 64 14.73 17.9 7 1013.9 0 31.9 32.4 58.1 153.5 162.5 563.8
06/02 09:00 18.3 60 9.38 10.5 9 1018.8 0 21.0 26.0 40.9 107.2 103.2 355.8
05/02 09:00 21 58 10.62 12.5 20 1017 0 23.5 27.1 44.2 116.2 115.2 398.1
04/02 09:00 24 40 8.7 9.8 13 1016.9 0 19.3 23.4 35.6 93.3 87.9 302.9
03/02 09:00 18.2 44 6.84 6 17 1022.4 0 15.7 22.4 31.6 82.4 72.4 247.8
02/02 09:00 15 43 5.51 2.7 22 1024.1 0 13.0 21.3 28.1 73.1 59.6 202.4
01/02 09:00 18.5 61 9.65 11 24 1011.4 1 21.6 26.1 41.5 109.0 105.8 364.9
31/01 09:00 27 49 12.61 15.6 0 1006.9 0 27.3 28.0 47.9 126.4 130.1 450.9
30/01 09:00 29.5 38 11.22 13.9 9 1012.4 0 24.3 25.4 41.7 109.7 110.0 381.0
29/01 09:00 21.1 50 9.21 10.3 20 1015.5 0 20.5 24.9 38.7 101.5 97.2 335.3
28/01 09:00 30.9 31 9.87 12.1 17 1009.2 0 21.4 23.0 36.3 95.3 92.8 320.8
27/01 09:00 27.1 40 10.35 12.6 15 1008 0 22.6 24.7 39.6 104.2 102.7 355.2
26/01 09:00 22.3 52 10.27 12.1 11 1009.5 0 22.7 25.9 41.8 109.9 108.2 374.0
25/01 09:00 30.6 15 4.7 1.2 9 1006.5 0 10.8 16.6 20.6 53.3 41.0 139.0
24/01 09:00 23 37 7.6 7.8 9 1009.8 0 17.1 21.9 31.9 83.5 75.9 260.7
23/01 09:00 18.4 50 7.86 7.9 17 1014.9 0 17.8 23.5 34.9 91.4 83.8 288.1
22/01 09:00 17 51 7.38 7 37 1013.4 0 16.9 23.1 33.7 88.1 79.4 272.2

Last Refresh: 08-May-2026 12:07:36

Bureau of Meteorology